sensor_id;sensor_type;location;lat;lon;timestamp;P1;durP1;ratioP1;P2;durP2;ratioP2
8161;SDS011;16778;48.154;15.094;2023-05-19T00:01:26;2.43;;;1.77;;
8161;SDS011;16778;48.154;15.094;2023-05-19T00:03:53;3.93;;;2.13;;
8161;SDS011;16778;48.154;15.094;2023-05-19T00:06:22;5.07;;;1.83;;
8161;SDS011;16778;48.154;15.094;2023-05-19T00:08:55;4.37;;;1.90;;
8161;SDS011;16778;48.154;15.094;2023-05-19T00:11:32;6.67;;;2.00;;
8161;SDS011;16778;48.154;15.094;2023-05-19T00:14:00;4.43;;;1.60;;
8161;SDS011;16778;48.154;15.094;2023-05-19T00:16:27;3.23;;;2.10;;
8161;SDS011;16778;48.154;15.094;2023-05-19T00:18:53;1.60;;;1.30;;
8161;SDS011;16778;48.154;15.094;2023-05-19T00:21:19;3.43;;;1.80;;
8161;SDS011;16778;48.154;15.094;2023-05-19T00:23:45;2.87;;;1.60;;
8161;SDS011;16778;48.154;15.094;2023-05-19T00:26:11;2.53;;;1.33;;
8161;SDS011;16778;48.154;15.094;2023-05-19T00:28:36;3.00;;;1.57;;
8161;SDS011;16778;48.154;15.094;2023-05-19T00:31:03;5.33;;;1.67;;
8161;SDS011;16778;48.154;15.094;2023-05-19T00:33:29;2.10;;;1.53;;
8161;SDS011;16778;48.154;15.094;2023-05-19T00:35:55;3.40;;;1.97;;
8161;SDS011;16778;48.154;15.094;2023-05-19T00:38:20;4.83;;;1.70;;
8161;SDS011;16778;48.154;15.094;2023-05-19T00:40:46;4.63;;;1.67;;
8161;SDS011;16778;48.154;15.094;2023-05-19T00:43:12;1.83;;;1.40;;
8161;SDS011;16778;48.154;15.094;2023-05-19T00:45:37;2.10;;;1.60;;
8161;SDS011;16778;48.154;15.094;2023-05-19T00:48:03;2.67;;;1.93;;
8161;SDS011;16778;48.154;15.094;2023-05-19T00:50:29;1.70;;;1.60;;
8161;SDS011;16778;48.154;15.094;2023-05-19T00:52:55;4.27;;;2.03;;
8161;SDS011;16778;48.154;15.094;2023-05-19T00:55:25;4.90;;;1.93;;
8161;SDS011;16778;48.154;15.094;2023-05-19T00:57:52;1.70;;;1.33;;
8161;SDS011;16778;48.154;15.094;2023-05-19T01:00:19;2.07;;;1.57;;
8161;SDS011;16778;48.154;15.094;2023-05-19T01:02:45;2.57;;;1.60;;
8161;SDS011;16778;48.154;15.094;2023-05-19T01:05:11;2.67;;;1.83;;
8161;SDS011;16778;48.154;15.094;2023-05-19T01:07:38;2.53;;;1.10;;
8161;SDS011;16778;48.154;15.094;2023-05-19T01:10:05;1.87;;;1.43;;
8161;SDS011;16778;48.154;15.094;2023-05-19T01:12:31;2.30;;;1.60;;
8161;SDS011;16778;48.154;15.094;2023-05-19T01:14:57;3.47;;;1.50;;
8161;SDS011;16778;48.154;15.094;2023-05-19T01:17:26;2.80;;;1.47;;
8161;SDS011;16778;48.154;15.094;2023-05-19T01:20:07;2.60;;;1.40;;
8161;SDS011;16778;48.154;15.094;2023-05-19T01:27:46;2.83;;;1.47;;
8161;SDS011;16778;48.154;15.094;2023-05-19T01:30:39;2.10;;;1.50;;
8161;SDS011;16778;48.154;15.094;2023-05-19T01:33:10;2.47;;;1.80;;
8161;SDS011;16778;48.154;15.094;2023-05-19T01:35:40;2.63;;;1.60;;
8161;SDS011;16778;48.154;15.094;2023-05-19T01:38:08;4.47;;;1.40;;
8161;SDS011;16778;48.154;15.094;2023-05-19T01:40:34;1.93;;;1.63;;
8161;SDS011;16778;48.154;15.094;2023-05-19T01:43:02;6.67;;;1.60;;
8161;SDS011;16778;48.154;15.094;2023-05-19T01:45:28;4.30;;;1.70;;
8161;SDS011;16778;48.154;15.094;2023-05-19T01:47:57;2.83;;;1.63;;
8161;SDS011;16778;48.154;15.094;2023-05-19T01:50:24;2.03;;;1.67;;
8161;SDS011;16778;48.154;15.094;2023-05-19T01:52:50;2.20;;;1.63;;
8161;SDS011;16778;48.154;15.094;2023-05-19T01:55:16;2.00;;;1.43;;
8161;SDS011;16778;48.154;15.094;2023-05-19T01:57:46;2.10;;;1.40;;
8161;SDS011;16778;48.154;15.094;2023-05-19T02:05:44;2.97;;;1.50;;
8161;SDS011;16778;48.154;15.094;2023-05-19T02:08:29;4.07;;;1.93;;
8161;SDS011;16778;48.154;15.094;2023-05-19T02:11:13;4.00;;;1.80;;
8161;SDS011;16778;48.154;15.094;2023-05-19T02:13:55;2.37;;;1.70;;
8161;SDS011;16778;48.154;15.094;2023-05-19T02:16:23;3.60;;;1.87;;
8161;SDS011;16778;48.154;15.094;2023-05-19T02:18:52;2.57;;;1.70;;
8161;SDS011;16778;48.154;15.094;2023-05-19T02:21:18;3.20;;;1.43;;
8161;SDS011;16778;48.154;15.094;2023-05-19T02:23:43;1.60;;;1.50;;
8161;SDS011;16778;48.154;15.094;2023-05-19T02:26:09;3.37;;;1.87;;
8161;SDS011;16778;48.154;15.094;2023-05-19T02:28:35;3.90;;;1.70;;
8161;SDS011;16778;48.154;15.094;2023-05-19T02:31:01;2.33;;;1.60;;
8161;SDS011;16778;48.154;15.094;2023-05-19T02:33:29;3.33;;;1.50;;
8161;SDS011;16778;48.154;15.094;2023-05-19T02:35:55;2.30;;;1.70;;
8161;SDS011;16778;48.154;15.094;2023-05-19T02:38:21;2.90;;;1.57;;
8161;SDS011;16778;48.154;15.094;2023-05-19T02:40:47;2.63;;;1.90;;
8161;SDS011;16778;48.154;15.094;2023-05-19T02:43:12;2.80;;;1.73;;
8161;SDS011;16778;48.154;15.094;2023-05-19T02:45:38;2.90;;;1.60;;
8161;SDS011;16778;48.154;15.094;2023-05-19T02:48:04;3.20;;;1.87;;
8161;SDS011;16778;48.154;15.094;2023-05-19T02:50:29;2.87;;;1.53;;
8161;SDS011;16778;48.154;15.094;2023-05-19T02:52:55;3.50;;;1.80;;
8161;SDS011;16778;48.154;15.094;2023-05-19T02:55:21;2.17;;;1.70;;
8161;SDS011;16778;48.154;15.094;2023-05-19T02:57:46;3.67;;;2.00;;
8161;SDS011;16778;48.154;15.094;2023-05-19T03:00:12;2.70;;;1.70;;
8161;SDS011;16778;48.154;15.094;2023-05-19T03:02:38;4.43;;;1.93;;
8161;SDS011;16778;48.154;15.094;2023-05-19T03:05:05;2.47;;;1.70;;
8161;SDS011;16778;48.154;15.094;2023-05-19T03:07:32;3.43;;;2.13;;
8161;SDS011;16778;48.154;15.094;2023-05-19T03:09:57;3.93;;;1.77;;
8161;SDS011;16778;48.154;15.094;2023-05-19T03:12:23;2.47;;;1.67;;
8161;SDS011;16778;48.154;15.094;2023-05-19T03:14:49;5.33;;;1.87;;
8161;SDS011;16778;48.154;15.094;2023-05-19T03:17:14;2.03;;;1.57;;
8161;SDS011;16778;48.154;15.094;2023-05-19T03:19:40;2.70;;;2.03;;
8161;SDS011;16778;48.154;15.094;2023-05-19T03:22:06;5.10;;;2.23;;
8161;SDS011;16778;48.154;15.094;2023-05-19T03:24:31;1.67;;;1.50;;
8161;SDS011;16778;48.154;15.094;2023-05-19T03:26:57;5.83;;;2.47;;
8161;SDS011;16778;48.154;15.094;2023-05-19T03:29:22;7.97;;;2.10;;
8161;SDS011;16778;48.154;15.094;2023-05-19T03:31:48;5.97;;;2.00;;
8161;SDS011;16778;48.154;15.094;2023-05-19T03:34:15;3.23;;;2.13;;
8161;SDS011;16778;48.154;15.094;2023-05-19T03:36:41;5.40;;;2.47;;
8161;SDS011;16778;48.154;15.094;2023-05-19T03:39:08;2.47;;;1.60;;
8161;SDS011;16778;48.154;15.094;2023-05-19T03:41:35;5.07;;;2.47;;
8161;SDS011;16778;48.154;15.094;2023-05-19T03:44:01;3.77;;;2.20;;
8161;SDS011;16778;48.154;15.094;2023-05-19T03:46:26;3.77;;;2.40;;
8161;SDS011;16778;48.154;15.094;2023-05-19T03:48:52;4.07;;;2.57;;
8161;SDS011;16778;48.154;15.094;2023-05-19T03:51:18;3.27;;;2.13;;
8161;SDS011;16778;48.154;15.094;2023-05-19T03:53:43;4.07;;;2.40;;
8161;SDS011;16778;48.154;15.094;2023-05-19T03:56:09;4.80;;;2.77;;
8161;SDS011;16778;48.154;15.094;2023-05-19T03:58:37;4.40;;;2.53;;
8161;SDS011;16778;48.154;15.094;2023-05-19T04:01:07;11.63;;;2.37;;
8161;SDS011;16778;48.154;15.094;2023-05-19T04:03:33;3.63;;;2.13;;
8161;SDS011;16778;48.154;15.094;2023-05-19T04:05:58;3.87;;;2.10;;
8161;SDS011;16778;48.154;15.094;2023-05-19T04:08:24;3.70;;;2.33;;
8161;SDS011;16778;48.154;15.094;2023-05-19T04:10:50;3.23;;;2.60;;
8161;SDS011;16778;48.154;15.094;2023-05-19T04:13:15;5.53;;;2.70;;
8161;SDS011;16778;48.154;15.094;2023-05-19T04:15:41;3.80;;;2.40;;
8161;SDS011;16778;48.154;15.094;2023-05-19T04:18:06;3.63;;;2.73;;
8161;SDS011;16778;48.154;15.094;2023-05-19T04:20:32;2.70;;;2.33;;
8161;SDS011;16778;48.154;15.094;2023-05-19T04:22:57;3.63;;;2.37;;
8161;SDS011;16778;48.154;15.094;2023-05-19T04:25:23;3.93;;;2.50;;
8161;SDS011;16778;48.154;15.094;2023-05-19T04:27:49;7.67;;;2.80;;
8161;SDS011;16778;48.154;15.094;2023-05-19T04:30:16;3.70;;;2.53;;
8161;SDS011;16778;48.154;15.094;2023-05-19T04:32:46;4.00;;;2.37;;
8161;SDS011;16778;48.154;15.094;2023-05-19T04:35:14;4.30;;;3.07;;
8161;SDS011;16778;48.154;15.094;2023-05-19T04:37:41;4.97;;;2.63;;
8161;SDS011;16778;48.154;15.094;2023-05-19T04:40:10;7.80;;;2.93;;
8161;SDS011;16778;48.154;15.094;2023-05-19T04:42:36;5.57;;;2.33;;
8161;SDS011;16778;48.154;15.094;2023-05-19T04:45:05;3.50;;;2.63;;
8161;SDS011;16778;48.154;15.094;2023-05-19T04:47:33;4.93;;;2.87;;
8161;SDS011;16778;48.154;15.094;2023-05-19T04:50:02;5.47;;;2.93;;
8161;SDS011;16778;48.154;15.094;2023-05-19T04:52:28;5.27;;;3.40;;
8161;SDS011;16778;48.154;15.094;2023-05-19T04:54:53;8.03;;;2.97;;
8161;SDS011;16778;48.154;15.094;2023-05-19T04:57:19;3.60;;;2.73;;
8161;SDS011;16778;48.154;15.094;2023-05-19T04:59:45;4.37;;;2.40;;
8161;SDS011;16778;48.154;15.094;2023-05-19T05:02:10;4.77;;;2.80;;
8161;SDS011;16778;48.154;15.094;2023-05-19T05:04:36;4.60;;;3.33;;
8161;SDS011;16778;48.154;15.094;2023-05-19T05:07:06;6.67;;;3.50;;
8161;SDS011;16778;48.154;15.094;2023-05-19T05:09:32;4.47;;;2.73;;
8161;SDS011;16778;48.154;15.094;2023-05-19T05:11:57;6.10;;;2.97;;
8161;SDS011;16778;48.154;15.094;2023-05-19T05:14:24;4.93;;;2.83;;
8161;SDS011;16778;48.154;15.094;2023-05-19T05:16:50;6.47;;;3.20;;
8161;SDS011;16778;48.154;15.094;2023-05-19T05:19:16;7.40;;;2.50;;
8161;SDS011;16778;48.154;15.094;2023-05-19T05:21:42;4.83;;;2.83;;
8161;SDS011;16778;48.154;15.094;2023-05-19T05:24:08;3.77;;;2.53;;
8161;SDS011;16778;48.154;15.094;2023-05-19T05:26:34;6.73;;;2.87;;
8161;SDS011;16778;48.154;15.094;2023-05-19T05:29:01;15.73;;;3.20;;
8161;SDS011;16778;48.154;15.094;2023-05-19T05:31:27;4.40;;;2.97;;
8161;SDS011;16778;48.154;15.094;2023-05-19T05:33:52;5.63;;;2.83;;
8161;SDS011;16778;48.154;15.094;2023-05-19T05:36:18;5.37;;;3.00;;
8161;SDS011;16778;48.154;15.094;2023-05-19T05:38:44;4.57;;;2.87;;
8161;SDS011;16778;48.154;15.094;2023-05-19T05:41:09;7.40;;;2.87;;
8161;SDS011;16778;48.154;15.094;2023-05-19T05:43:35;4.00;;;1.83;;
8161;SDS011;16778;48.154;15.094;2023-05-19T05:46:01;4.97;;;2.77;;
8161;SDS011;16778;48.154;15.094;2023-05-19T05:48:26;6.07;;;3.00;;
8161;SDS011;16778;48.154;15.094;2023-05-19T05:50:52;7.77;;;3.07;;
8161;SDS011;16778;48.154;15.094;2023-05-19T05:53:19;7.43;;;3.00;;
8161;SDS011;16778;48.154;15.094;2023-05-19T05:55:45;6.77;;;2.70;;
8161;SDS011;16778;48.154;15.094;2023-05-19T05:58:12;5.60;;;2.87;;
8161;SDS011;16778;48.154;15.094;2023-05-19T06:00:39;4.73;;;2.57;;
8161;SDS011;16778;48.154;15.094;2023-05-19T06:03:09;3.90;;;2.37;;
8161;SDS011;16778;48.154;15.094;2023-05-19T06:05:38;5.27;;;2.90;;
8161;SDS011;16778;48.154;15.094;2023-05-19T06:08:04;4.13;;;2.73;;
8161;SDS011;16778;48.154;15.094;2023-05-19T06:10:30;4.57;;;2.80;;
8161;SDS011;16778;48.154;15.094;2023-05-19T06:12:56;5.73;;;2.60;;
8161;SDS011;16778;48.154;15.094;2023-05-19T06:15:21;3.83;;;2.40;;
8161;SDS011;16778;48.154;15.094;2023-05-19T06:17:47;4.60;;;2.40;;
8161;SDS011;16778;48.154;15.094;2023-05-19T06:20:13;5.67;;;2.40;;
8161;SDS011;16778;48.154;15.094;2023-05-19T06:22:38;3.50;;;2.27;;
8161;SDS011;16778;48.154;15.094;2023-05-19T06:25:05;4.20;;;2.43;;
8161;SDS011;16778;48.154;15.094;2023-05-19T06:27:32;6.63;;;2.60;;
8161;SDS011;16778;48.154;15.094;2023-05-19T06:29:59;5.10;;;2.30;;
8161;SDS011;16778;48.154;15.094;2023-05-19T06:32:24;5.17;;;2.87;;
8161;SDS011;16778;48.154;15.094;2023-05-19T06:34:50;6.23;;;2.87;;
8161;SDS011;16778;48.154;15.094;2023-05-19T06:37:21;3.90;;;2.63;;
8161;SDS011;16778;48.154;15.094;2023-05-19T06:39:56;5.90;;;2.87;;
8161;SDS011;16778;48.154;15.094;2023-05-19T06:42:22;4.23;;;2.53;;
8161;SDS011;16778;48.154;15.094;2023-05-19T06:44:49;5.07;;;2.50;;
8161;SDS011;16778;48.154;15.094;2023-05-19T06:47:15;4.67;;;2.93;;
8161;SDS011;16778;48.154;15.094;2023-05-19T06:49:41;5.30;;;3.10;;
8161;SDS011;16778;48.154;15.094;2023-05-19T06:52:08;4.63;;;2.70;;
8161;SDS011;16778;48.154;15.094;2023-05-19T06:54:33;5.57;;;3.07;;
8161;SDS011;16778;48.154;15.094;2023-05-19T06:56:59;7.27;;;3.53;;
8161;SDS011;16778;48.154;15.094;2023-05-19T06:59:25;6.63;;;3.10;;
8161;SDS011;16778;48.154;15.094;2023-05-19T07:01:50;6.90;;;3.17;;
8161;SDS011;16778;48.154;15.094;2023-05-19T07:04:16;5.73;;;3.23;;
8161;SDS011;16778;48.154;15.094;2023-05-19T07:06:42;4.97;;;3.53;;
8161;SDS011;16778;48.154;15.094;2023-05-19T07:09:07;6.37;;;3.53;;
8161;SDS011;16778;48.154;15.094;2023-05-19T07:11:33;3.53;;;2.30;;
8161;SDS011;16778;48.154;15.094;2023-05-19T07:13:58;7.53;;;2.87;;
8161;SDS011;16778;48.154;15.094;2023-05-19T07:16:24;4.27;;;2.73;;
8161;SDS011;16778;48.154;15.094;2023-05-19T07:18:50;7.03;;;3.10;;
8161;SDS011;16778;48.154;15.094;2023-05-19T07:21:16;7.80;;;3.23;;
8161;SDS011;16778;48.154;15.094;2023-05-19T07:23:41;4.60;;;2.70;;
8161;SDS011;16778;48.154;15.094;2023-05-19T07:26:07;5.30;;;3.07;;
8161;SDS011;16778;48.154;15.094;2023-05-19T07:28:33;3.80;;;2.30;;
8161;SDS011;16778;48.154;15.094;2023-05-19T07:30:59;4.80;;;2.10;;
8161;SDS011;16778;48.154;15.094;2023-05-19T07:33:25;3.13;;;2.27;;
8161;SDS011;16778;48.154;15.094;2023-05-19T07:35:51;3.80;;;2.70;;
8161;SDS011;16778;48.154;15.094;2023-05-19T07:38:17;4.80;;;2.73;;
8161;SDS011;16778;48.154;15.094;2023-05-19T07:40:43;4.50;;;2.77;;
8161;SDS011;16778;48.154;15.094;2023-05-19T07:43:08;4.80;;;2.37;;
8161;SDS011;16778;48.154;15.094;2023-05-19T07:45:35;3.43;;;2.20;;
8161;SDS011;16778;48.154;15.094;2023-05-19T07:48:01;2.87;;;1.77;;
8161;SDS011;16778;48.154;15.094;2023-05-19T07:50:27;5.93;;;1.83;;
8161;SDS011;16778;48.154;15.094;2023-05-19T07:52:53;3.27;;;2.07;;
8161;SDS011;16778;48.154;15.094;2023-05-19T07:55:19;2.73;;;1.83;;
8161;SDS011;16778;48.154;15.094;2023-05-19T07:57:47;3.27;;;1.83;;
8161;SDS011;16778;48.154;15.094;2023-05-19T08:00:14;3.30;;;1.80;;
8161;SDS011;16778;48.154;15.094;2023-05-19T08:02:40;8.87;;;2.30;;
8161;SDS011;16778;48.154;15.094;2023-05-19T08:05:06;4.07;;;2.10;;
8161;SDS011;16778;48.154;15.094;2023-05-19T08:07:33;3.50;;;1.67;;
8161;SDS011;16778;48.154;15.094;2023-05-19T08:09:59;3.63;;;2.33;;
8161;SDS011;16778;48.154;15.094;2023-05-19T08:12:24;2.40;;;1.57;;
8161;SDS011;16778;48.154;15.094;2023-05-19T08:14:50;5.77;;;2.30;;
8161;SDS011;16778;48.154;15.094;2023-05-19T08:17:16;3.73;;;1.87;;
8161;SDS011;16778;48.154;15.094;2023-05-19T08:19:42;2.80;;;1.70;;
8161;SDS011;16778;48.154;15.094;2023-05-19T08:22:07;1.97;;;1.63;;
8161;SDS011;16778;48.154;15.094;2023-05-19T08:24:33;2.43;;;1.50;;
8161;SDS011;16778;48.154;15.094;2023-05-19T08:26:59;1.80;;;1.50;;
8161;SDS011;16778;48.154;15.094;2023-05-19T08:29:24;3.13;;;2.00;;
8161;SDS011;16778;48.154;15.094;2023-05-19T08:31:50;2.93;;;1.63;;
8161;SDS011;16778;48.154;15.094;2023-05-19T08:34:17;3.23;;;1.80;;
8161;SDS011;16778;48.154;15.094;2023-05-19T08:36:43;2.50;;;1.30;;
8161;SDS011;16778;48.154;15.094;2023-05-19T08:39:09;2.77;;;1.83;;
8161;SDS011;16778;48.154;15.094;2023-05-19T08:41:35;2.20;;;1.50;;
8161;SDS011;16778;48.154;15.094;2023-05-19T08:44:01;2.60;;;1.37;;
8161;SDS011;16778;48.154;15.094;2023-05-19T08:46:27;3.10;;;1.67;;
8161;SDS011;16778;48.154;15.094;2023-05-19T08:48:53;2.83;;;1.63;;
8161;SDS011;16778;48.154;15.094;2023-05-19T08:51:26;1.87;;;1.30;;
8161;SDS011;16778;48.154;15.094;2023-05-19T08:53:59;2.50;;;1.83;;
8161;SDS011;16778;48.154;15.094;2023-05-19T08:56:32;2.23;;;1.63;;
8161;SDS011;16778;48.154;15.094;2023-05-19T08:58:58;2.53;;;1.60;;
8161;SDS011;16778;48.154;15.094;2023-05-19T09:01:24;3.50;;;1.70;;
8161;SDS011;16778;48.154;15.094;2023-05-19T09:03:51;3.20;;;1.33;;
8161;SDS011;16778;48.154;15.094;2023-05-19T09:06:16;2.17;;;1.60;;
8161;SDS011;16778;48.154;15.094;2023-05-19T09:08:42;3.57;;;1.80;;
8161;SDS011;16778;48.154;15.094;2023-05-19T09:11:08;2.13;;;1.60;;
8161;SDS011;16778;48.154;15.094;2023-05-19T09:13:34;2.23;;;1.20;;
8161;SDS011;16778;48.154;15.094;2023-05-19T09:16:00;2.47;;;1.73;;
8161;SDS011;16778;48.154;15.094;2023-05-19T09:18:27;2.87;;;1.90;;
8161;SDS011;16778;48.154;15.094;2023-05-19T09:20:57;3.63;;;1.60;;
8161;SDS011;16778;48.154;15.094;2023-05-19T09:23:25;2.13;;;1.40;;
8161;SDS011;16778;48.154;15.094;2023-05-19T09:25:53;2.63;;;1.53;;
8161;SDS011;16778;48.154;15.094;2023-05-19T09:28:26;2.17;;;1.50;;
8161;SDS011;16778;48.154;15.094;2023-05-19T09:31:04;6.53;;;1.50;;
8161;SDS011;16778;48.154;15.094;2023-05-19T09:33:34;2.60;;;1.80;;
8161;SDS011;16778;48.154;15.094;2023-05-19T09:36:01;2.57;;;1.60;;
8161;SDS011;16778;48.154;15.094;2023-05-19T09:38:27;2.97;;;1.83;;
8161;SDS011;16778;48.154;15.094;2023-05-19T09:40:56;2.03;;;1.33;;
8161;SDS011;16778;48.154;15.094;2023-05-19T09:43:25;1.33;;;1.23;;
8161;SDS011;16778;48.154;15.094;2023-05-19T09:46:08;2.30;;;2.10;;
8161;SDS011;16778;48.154;15.094;2023-05-19T09:48:35;2.17;;;1.63;;
8161;SDS011;16778;48.154;15.094;2023-05-19T09:51:02;2.27;;;1.37;;
8161;SDS011;16778;48.154;15.094;2023-05-19T09:53:29;1.83;;;1.40;;
8161;SDS011;16778;48.154;15.094;2023-05-19T09:55:58;3.03;;;1.93;;
8161;SDS011;16778;48.154;15.094;2023-05-19T09:58:29;2.47;;;1.47;;
8161;SDS011;16778;48.154;15.094;2023-05-19T10:00:55;2.13;;;1.60;;
8161;SDS011;16778;48.154;15.094;2023-05-19T10:03:22;2.63;;;1.67;;
8161;SDS011;16778;48.154;15.094;2023-05-19T10:05:49;2.47;;;1.40;;
8161;SDS011;16778;48.154;15.094;2023-05-19T10:08:15;2.13;;;1.50;;
8161;SDS011;16778;48.154;15.094;2023-05-19T10:10:41;2.47;;;1.40;;
8161;SDS011;16778;48.154;15.094;2023-05-19T10:13:09;2.50;;;1.60;;
8161;SDS011;16778;48.154;15.094;2023-05-19T10:15:36;2.43;;;1.50;;
8161;SDS011;16778;48.154;15.094;2023-05-19T10:18:02;2.60;;;1.40;;
8161;SDS011;16778;48.154;15.094;2023-05-19T10:20:28;1.80;;;1.20;;
8161;SDS011;16778;48.154;15.094;2023-05-19T10:22:55;3.17;;;1.50;;
8161;SDS011;16778;48.154;15.094;2023-05-19T10:25:20;3.57;;;1.60;;
8161;SDS011;16778;48.154;15.094;2023-05-19T10:27:51;2.30;;;1.33;;
8161;SDS011;16778;48.154;15.094;2023-05-19T10:30:21;1.80;;;1.40;;
8161;SDS011;16778;48.154;15.094;2023-05-19T10:32:53;2.77;;;1.60;;
8161;SDS011;16778;48.154;15.094;2023-05-19T10:38:23;1.57;;;1.20;;
8161;SDS011;16778;48.154;15.094;2023-05-19T10:46:11;2.23;;;1.60;;
8161;SDS011;16778;48.154;15.094;2023-05-19T10:48:36;1.90;;;1.47;;
8161;SDS011;16778;48.154;15.094;2023-05-19T10:51:02;2.27;;;1.40;;
8161;SDS011;16778;48.154;15.094;2023-05-19T10:53:29;1.87;;;1.43;;
8161;SDS011;16778;48.154;15.094;2023-05-19T10:56:00;2.63;;;1.53;;
8161;SDS011;16778;48.154;15.094;2023-05-19T10:58:37;1.63;;;1.30;;
8161;SDS011;16778;48.154;15.094;2023-05-19T11:03:45;2.97;;;1.67;;
8161;SDS011;16778;48.154;15.094;2023-05-19T11:11:22;1.50;;;1.40;;
8161;SDS011;16778;48.154;15.094;2023-05-19T11:13:52;2.17;;;1.37;;
8161;SDS011;16778;48.154;15.094;2023-05-19T11:16:28;1.90;;;1.37;;
8161;SDS011;16778;48.154;15.094;2023-05-19T11:18:57;2.47;;;1.40;;
8161;SDS011;16778;48.154;15.094;2023-05-19T11:21:23;2.50;;;1.70;;
8161;SDS011;16778;48.154;15.094;2023-05-19T11:23:49;3.37;;;1.73;;
8161;SDS011;16778;48.154;15.094;2023-05-19T11:26:16;2.40;;;1.60;;
8161;SDS011;16778;48.154;15.094;2023-05-19T11:29:06;3.67;;;1.20;;
8161;SDS011;16778;48.154;15.094;2023-05-19T11:31:32;2.70;;;1.73;;
8161;SDS011;16778;48.154;15.094;2023-05-19T11:34:00;2.47;;;1.50;;
8161;SDS011;16778;48.154;15.094;2023-05-19T11:36:26;1.63;;;1.23;;
8161;SDS011;16778;48.154;15.094;2023-05-19T11:38:53;1.90;;;1.30;;
8161;SDS011;16778;48.154;15.094;2023-05-19T11:41:19;2.70;;;1.50;;
8161;SDS011;16778;48.154;15.094;2023-05-19T11:43:46;2.27;;;1.43;;
8161;SDS011;16778;48.154;15.094;2023-05-19T11:46:12;1.73;;;1.60;;
8161;SDS011;16778;48.154;15.094;2023-05-19T11:48:37;1.57;;;1.40;;
8161;SDS011;16778;48.154;15.094;2023-05-19T11:51:05;2.23;;;1.47;;
8161;SDS011;16778;48.154;15.094;2023-05-19T11:53:31;2.77;;;1.17;;
8161;SDS011;16778;48.154;15.094;2023-05-19T11:56:02;2.10;;;1.23;;
8161;SDS011;16778;48.154;15.094;2023-05-19T11:58:27;1.40;;;1.20;;
8161;SDS011;16778;48.154;15.094;2023-05-19T12:00:53;1.40;;;1.30;;
8161;SDS011;16778;48.154;15.094;2023-05-19T12:03:22;3.27;;;1.80;;
8161;SDS011;16778;48.154;15.094;2023-05-19T12:05:52;1.97;;;1.70;;
8161;SDS011;16778;48.154;15.094;2023-05-19T12:08:18;1.20;;;1.03;;
8161;SDS011;16778;48.154;15.094;2023-05-19T12:10:46;1.67;;;1.47;;
8161;SDS011;16778;48.154;15.094;2023-05-19T12:13:13;1.57;;;1.00;;
8161;SDS011;16778;48.154;15.094;2023-05-19T12:15:39;1.50;;;1.00;;
8161;SDS011;16778;48.154;15.094;2023-05-19T12:18:05;1.30;;;1.20;;
8161;SDS011;16778;48.154;15.094;2023-05-19T12:20:31;2.33;;;1.50;;
8161;SDS011;16778;48.154;15.094;2023-05-19T12:22:59;2.43;;;1.70;;
8161;SDS011;16778;48.154;15.094;2023-05-19T12:25:25;3.30;;;2.23;;
8161;SDS011;16778;48.154;15.094;2023-05-19T12:27:56;1.60;;;1.20;;
8161;SDS011;16778;48.154;15.094;2023-05-19T12:30:26;1.90;;;1.10;;
8161;SDS011;16778;48.154;15.094;2023-05-19T12:32:53;2.57;;;1.30;;
8161;SDS011;16778;48.154;15.094;2023-05-19T12:35:24;1.90;;;1.37;;
8161;SDS011;16778;48.154;15.094;2023-05-19T12:38:06;1.87;;;1.30;;
8161;SDS011;16778;48.154;15.094;2023-05-19T12:40:32;1.60;;;1.17;;
8161;SDS011;16778;48.154;15.094;2023-05-19T12:42:58;1.80;;;1.23;;
8161;SDS011;16778;48.154;15.094;2023-05-19T12:45:24;1.83;;;1.10;;
8161;SDS011;16778;48.154;15.094;2023-05-19T12:47:51;2.50;;;1.20;;
8161;SDS011;16778;48.154;15.094;2023-05-19T12:50:17;1.47;;;1.30;;
8161;SDS011;16778;48.154;15.094;2023-05-19T12:52:47;1.73;;;1.43;;
8161;SDS011;16778;48.154;15.094;2023-05-19T12:55:15;2.63;;;1.33;;
8161;SDS011;16778;48.154;15.094;2023-05-19T12:57:42;1.50;;;1.40;;
8161;SDS011;16778;48.154;15.094;2023-05-19T13:00:15;2.20;;;1.40;;
8161;SDS011;16778;48.154;15.094;2023-05-19T13:05:28;1.90;;;1.33;;
8161;SDS011;16778;48.154;15.094;2023-05-19T13:07:59;1.47;;;1.17;;
8161;SDS011;16778;48.154;15.094;2023-05-19T13:10:27;2.20;;;1.40;;
8161;SDS011;16778;48.154;15.094;2023-05-19T13:12:53;3.10;;;1.20;;
8161;SDS011;16778;48.154;15.094;2023-05-19T13:15:21;2.50;;;1.50;;
8161;SDS011;16778;48.154;15.094;2023-05-19T13:17:48;1.10;;;1.00;;
8161;SDS011;16778;48.154;15.094;2023-05-19T13:20:13;1.70;;;1.10;;
8161;SDS011;16778;48.154;15.094;2023-05-19T13:22:39;2.07;;;1.23;;
8161;SDS011;16778;48.154;15.094;2023-05-19T13:25:05;4.27;;;1.47;;
8161;SDS011;16778;48.154;15.094;2023-05-19T13:27:31;1.70;;;1.10;;
8161;SDS011;16778;48.154;15.094;2023-05-19T13:29:57;1.13;;;1.03;;
8161;SDS011;16778;48.154;15.094;2023-05-19T13:32:22;2.07;;;1.23;;
8161;SDS011;16778;48.154;15.094;2023-05-19T13:34:48;4.60;;;1.50;;
8161;SDS011;16778;48.154;15.094;2023-05-19T13:37:14;1.03;;;0.93;;
8161;SDS011;16778;48.154;15.094;2023-05-19T13:39:39;1.30;;;1.10;;
8161;SDS011;16778;48.154;15.094;2023-05-19T13:42:05;2.27;;;1.33;;
8161;SDS011;16778;48.154;15.094;2023-05-19T13:44:31;1.33;;;1.13;;
8161;SDS011;16778;48.154;15.094;2023-05-19T13:46:56;1.17;;;1.07;;
8161;SDS011;16778;48.154;15.094;2023-05-19T13:49:22;1.23;;;1.00;;
8161;SDS011;16778;48.154;15.094;2023-05-19T13:51:48;1.20;;;1.10;;
8161;SDS011;16778;48.154;15.094;2023-05-19T13:54:14;2.10;;;1.20;;
8161;SDS011;16778;48.154;15.094;2023-05-19T13:56:41;1.97;;;1.27;;
8161;SDS011;16778;48.154;15.094;2023-05-19T13:59:09;1.30;;;0.90;;
8161;SDS011;16778;48.154;15.094;2023-05-19T14:01:35;1.03;;;0.90;;
8161;SDS011;16778;48.154;15.094;2023-05-19T14:04:01;1.30;;;1.10;;
8161;SDS011;16778;48.154;15.094;2023-05-19T14:06:26;1.10;;;1.00;;
8161;SDS011;16778;48.154;15.094;2023-05-19T14:08:52;1.87;;;1.07;;
8161;SDS011;16778;48.154;15.094;2023-05-19T14:11:18;1.10;;;1.00;;
8161;SDS011;16778;48.154;15.094;2023-05-19T14:13:46;1.77;;;1.13;;
8161;SDS011;16778;48.154;15.094;2023-05-19T14:16:12;1.70;;;1.40;;
8161;SDS011;16778;48.154;15.094;2023-05-19T14:18:38;1.53;;;1.03;;
8161;SDS011;16778;48.154;15.094;2023-05-19T14:21:03;1.70;;;1.27;;
8161;SDS011;16778;48.154;15.094;2023-05-19T14:23:30;0.87;;;0.87;;
8161;SDS011;16778;48.154;15.094;2023-05-19T14:25:56;1.30;;;1.20;;
8161;SDS011;16778;48.154;15.094;2023-05-19T14:28:21;1.20;;;1.10;;
8161;SDS011;16778;48.154;15.094;2023-05-19T14:30:47;2.50;;;1.10;;
8161;SDS011;16778;48.154;15.094;2023-05-19T14:33:13;1.50;;;1.00;;
8161;SDS011;16778;48.154;15.094;2023-05-19T14:35:39;1.20;;;1.10;;
8161;SDS011;16778;48.154;15.094;2023-05-19T14:38:05;1.00;;;0.90;;
8161;SDS011;16778;48.154;15.094;2023-05-19T14:40:30;1.90;;;1.17;;
8161;SDS011;16778;48.154;15.094;2023-05-19T14:42:56;1.15;;;0.90;;
8161;SDS011;16778;48.154;15.094;2023-05-19T14:45:22;1.00;;;0.90;;
8161;SDS011;16778;48.154;15.094;2023-05-19T14:47:47;1.30;;;1.00;;
8161;SDS011;16778;48.154;15.094;2023-05-19T14:50:13;1.43;;;1.03;;
8161;SDS011;16778;48.154;15.094;2023-05-19T14:52:38;1.17;;;0.95;;
8161;SDS011;16778;48.154;15.094;2023-05-19T14:55:04;1.25;;;1.05;;
8161;SDS011;16778;48.154;15.094;2023-05-19T14:57:30;1.65;;;1.10;;
8161;SDS011;16778;48.154;15.094;2023-05-19T14:59:55;1.83;;;1.30;;
8161;SDS011;16778;48.154;15.094;2023-05-19T15:02:21;2.65;;;1.10;;
8161;SDS011;16778;48.154;15.094;2023-05-19T15:04:47;1.70;;;0.93;;
8161;SDS011;16778;48.154;15.094;2023-05-19T15:07:13;1.43;;;1.13;;
8161;SDS011;16778;48.154;15.094;2023-05-19T15:09:38;1.00;;;0.90;;
8161;SDS011;16778;48.154;15.094;2023-05-19T15:12:04;1.40;;;1.10;;
8161;SDS011;16778;48.154;15.094;2023-05-19T15:14:30;1.37;;;0.97;;
8161;SDS011;16778;48.154;15.094;2023-05-19T15:16:55;1.37;;;1.17;;